Terminal Aerodrome Forecast
Issued by NWS Twin Cities, MN

Home | Current Version | Previous Version | Text Only | Print | Product List | Glossary On
Versions: 1 2 3 4 5 6 7 8 9 10 11 12 13 14 15 16 17 18 19 20 21 22 23 24
000
FTUS43 KMPX 221500 AAA
TAFMSP
TAF AMD
KMSP 221504Z 2215/2318 36006KT P6SM OVC009
     FM221600 36005KT P6SM BKN012
     FM221800 36006KT P6SM BKN020
     FM222000 01006KT P6SM SCT030
     FM230300 05005KT P6SM BKN200
     FM230900 06005KT 4SM BR BKN007
     FM231600 10006KT 6SM BR BKN020=

USA.gov is the U.S. government's official web portal to all federal, state and local government web resources and services.